PAAK Airport Information

Runway Information
Runway 16 Length 4500 ft width 100 ft
Elevation 56 ft Threshold 0 ft Heading 165
Runway 34 Length 4500 ft Width 100 ft
Elevation 46 ft Threshold 0 ft Heading 345
Airport Frequencies
Airport Navaids
Airport Weather Information & NOTAM
ADDS - METARS form results

(1558 UTC 24 April 2019)
Data provider http://aviationweather.gov/metar/data/
 
METAR text: PAAK 241556Z AUTO 00000KT 10SM OVC033 01/M05 A3022 RMK AO2 SLP236 T00061050 FZRANO
Conditions at: PAAK (ATKA , AK, US) observed 1556 UTC 24 April 2019
Temperature: 0.6°C (33°F)
Dewpoint: -5.0°C (23°F) [RH = 66%]
Pressure (altimeter): 30.22 inches Hg (1023.5 mb)
[Sea-level pressure: 1023.6 mb]
Winds: calm
Visibility: 10 or more miles (16+ km)
Ceiling: 3300 feet AGL
Clouds: overcast cloud deck at 3300 feet AGL
Weather: automated observation with no human augmentation;
there may or may not be significant weather present at this time